Scroll down
FLIGHT INFORMATION
United Parcel Service (UPS)

UPS9621

At Arrival Gate

PHOG
 PHNL
DATE: 2019-08-23
GATE:  -
GATE DEPARTURE: 02:45
TAKEOFF: 02:53
DATE: 2019-08-23
GATE: D
LANDING: 03:19
GATE ARRIVAL: 03:24
FLIGHT DATA
Crew: TOM LANDRY
Speed: 395 kts Altitude: 16000 ft
Stage Length: 87 nm
Route: PHOG OGG LNY GRAMY SOBOW SERAH SAKKI JULLE ALANA MAKOA RW08L
Block Time: 0.7 Flight Time: 0.4
Fuel Used: 10883 LB
TRACK DATA
50000 FT1000 KT
AIRCRAFT INFORMATION
Aircraft Type: B744F
Registration: N581UP
SELCAL:  MSN/LN: 25866 / 1002
Operator: UNITED PARCEL SERVICE (UPS)
Flights: 3 Block Time: 10.9 Flight Time: 10.4
Fuel Used: 215468 LB
  • DEPARTURE INFORMATION
    Date: 2019-08-23
    Airport: PHOG
    Gate:  -
    Gate Departure: 02:45
    Takeoff: 02:53
    ARRIVAL INFORMATION
    Date: 2019-08-23
    Airport: PHNL
    Gate: D
    Landing: 03:19
    Gate Arrival: 03:24
  • FLIGHT DATA
    Crew: TOM LANDRY
    Speed: 395 kts Altitude: 16000 ft
    Stage Length: 47 nm
    Route: PHOG OGG LNY GRAMY SOBOW SERAH SAKKI JULLE ALANA MAKOA RW08L
    Block Time: 0.7 Flight Time: 0.4
    Fuel Used: 10883 LB
  • AIRCRAFT INFORMATION
    Aircraft Type: B744F
    Registration: N581UP
    SELCAL:  MSN/LN: 25866 / 1002
    Operator: United Parcel Service (UPS)
    Flights: 3 Block Time: 10.9 Flight Time: 10.4
    Fuel Used: 215468 LB

DATALINK LOG | Newest first | Current as of: 2020-09-29 22:44:02
LABEL SEQUENCE CONTENT Dn/Up
QD241103:24 24.1▼ Dn
QC192503:19▼ Dn
GA1053CARGO STAND D▲ Up
GR1047PHNL 03:18 MAAS YP/UM WCHR/S/C ▼ Dn
2U0950PHNL 230153Z 05012G19KT 10SM FEW025 SCT039 32/21 A2993 RMK AO2 SLP136 T03220206▲ Up
2S0950PHNL▼ Dn
QB544302:53▼ Dn
QA452002:45 35▼ Dn
A33531CLEARED TO PHNL VIA MAUI5 OGG LNY JULLE5. SQUAWK 2353.▲ Up
B33401PHOG PHNL UPS9621 N581UP G ▼ Dn
2U3000PHOG 230154Z 03020KT 10SM FEW040 31/21 A2994 RMK AO2 PK WND 04027/0124 SLP142 T03060211▲ Up
2S3000PHOG▼ Dn
Q03016[LINK ACK]▲ Up
Q02939[LINK TEST]▼ Dn


AIRCRAFT HISTORY
FLIGHT DATE FLIGHT NO. ORIGIN DESTINATION ROUTE BLOCK TIME FLIGHT TIME FUEL USED (LB) PILOT
2020-05-25UPS519PHNL KONT PHNL MKK BLUSH SESXI ALICA EBBER ELOYI ERROT ETNIC ETECO EDSEL EDTOO ELKEY DIRBY PHUNN SHHOW COAZT KARLB POXKU PDZ PDZ RW26R5.45105600Steven Perry
2019-08-23UPS9621PHOG PHNL PHOG OGG LNY GRAMY SOBOW SERAH SAKKI JULLE ALANA MAKOA RW08L0.70.410883Tom Landry
2019-08-21UPS3821KONT PHOG KONT GMN RZS DINTY DUETS DADIE DIALO DUSAC DRAYK DENNS PHOG5.14.998984Tom Landry